Time;durP1;ratioP1;P1;durP2;ratioP2;P2;SDS_P1;SDS_P2;PMS_P1;PMS_P2;Temp;Humidity;BMP_temperature;BMP_pressure;BME280_temperature;BME280_humidity;BME280_pressure;Samples;Min_cycle;Max_cycle;Signal;HPM_P1;HPM_P2
2021/04/21 00:00:19;;;;;;;29.65;26.05;;;;;;;10.46;80.20;100098.86;1826245;78;20953;-72
2021/04/21 00:02:51;;;;;;;24.47;21.82;;;;;;;10.46;80.03;100106.73;1826217;78;20920;-71
2021/04/21 00:05:20;;;;;;;23.18;20.62;;;;;;;10.43;79.85;100110.40;1826211;78;20932;-72
2021/04/21 00:07:49;;;;;;;22.82;20.40;;;;;;;10.41;79.70;100116.22;1826215;78;21192;-71
2021/04/21 00:10:20;;;;;;;21.95;19.50;;;;;;;10.39;79.75;100118.58;1826167;78;21093;-72
2021/04/21 00:12:49;;;;;;;25.85;19.45;;;;;;;10.37;79.80;100119.50;1826258;78;21496;-72
2021/04/21 00:15:21;;;;;;;25.12;20.40;;;;;;;10.35;79.78;100121.39;1826095;78;20952;-72
2021/04/21 00:17:58;;;;;;;24.00;21.52;;;;;;;10.35;79.72;100123.17;1826242;78;20928;-74
2021/04/21 00:20:27;;;;;;;23.05;20.43;;;;;;;10.36;79.54;100128.80;1826255;78;21196;-73
2021/04/21 00:22:57;;;;;;;24.95;21.90;;;;;;;10.36;79.26;100134.05;1826161;78;21004;-71
2021/04/21 00:25:27;;;;;;;22.67;20.25;;;;;;;10.35;79.08;100137.11;1826241;78;21548;-71
2021/04/21 00:27:56;;;;;;;20.97;18.73;;;;;;;10.31;79.11;100136.94;1826253;78;20992;-72
2021/04/21 00:30:28;;;;;;;25.12;19.17;;;;;;;10.29;79.12;100140.16;1826370;78;21457;-71
2021/04/21 00:32:56;;;;;;;21.68;18.50;;;;;;;10.27;79.02;100145.95;1826434;78;21138;-73
2021/04/21 00:35:37;;;;;;;23.02;19.40;;;;;;;10.24;79.01;100157.09;1826300;78;20999;-73
2021/04/21 00:38:10;;;;;;;24.10;20.77;;;;;;;10.23;79.04;100160.66;1826401;78;21592;-72
2021/04/21 00:40:47;;;;;;;24.52;21.77;;;;;;;10.22;78.91;100165.04;1826452;78;20930;-72
2021/04/21 00:43:39;;;;;;;25.08;20.52;;;;;;;10.19;78.75;100166.56;1826387;78;21370;-71
2021/04/21 00:46:32;;;;;;;24.90;19.50;;;;;;;10.20;78.62;100167.40;1826246;78;21660;-73
2021/04/21 00:49:31;;;;;;;21.48;18.77;;;;;;;10.15;78.54;100169.02;1826290;78;21382;-71
2021/04/21 00:52:06;;;;;;;21.90;19.35;;;;;;;10.10;78.51;100169.80;1826314;78;20944;-73
2021/04/21 00:55:03;;;;;;;25.72;20.52;;;;;;;10.02;78.78;100171.58;1798561;78;20995;-73
2021/04/21 00:57:54;;;;;;;26.87;21.60;;;;;;;10.00;78.69;100172.63;1826348;78;20992;-72
2021/04/21 01:00:34;;;;;;;24.70;22.00;;;;;;;9.96;78.69;100179.86;1813235;78;21521;-73
2021/04/21 01:03:11;;;;;;;23.65;20.55;;;;;;;9.94;78.72;100182.57;1825273;77;20992;-73
2021/04/21 01:05:48;;;;;;;24.12;19.92;;;;;;;9.93;78.48;100184.80;1826481;78;20947;-73
2021/04/21 01:08:23;;;;;;;21.75;17.98;;;;;;;9.91;78.56;100188.47;1826276;78;20920;-73
2021/04/21 01:11:05;;;;;;;24.70;20.23;;;;;;;9.91;78.66;100184.06;1798796;78;21332;-73
2021/04/21 01:13:45;;;;;;;21.73;18.60;;;;;;;9.90;78.56;100190.25;1826365;78;21324;-74
2021/04/21 01:16:31;;;;;;;23.30;19.27;;;;;;;9.93;78.54;100191.35;1890085;76;22262;-74
2021/04/21 01:19:05;;;;;;;23.22;20.45;;;;;;;9.89;78.34;100200.38;1861516;77;20895;-74
2021/04/21 01:21:52;;;;;;;22.15;18.87;;;;;;;9.86;78.18;100201.86;1861129;77;21599;-73
2021/04/21 01:24:54;;;;;;;23.38;18.45;;;;;;;9.82;78.00;100208.22;1823220;78;21047;-73
2021/04/21 01:27:22;;;;;;;20.82;16.80;;;;;;;9.78;77.87;100213.75;1823313;78;21455;-72
2021/04/21 01:29:53;;;;;;;19.05;16.15;;;;;;;9.70;78.01;100210.33;1823185;78;20959;-74
2021/04/21 01:32:28;;;;;;;21.57;17.32;;;;;;;9.64;77.89;100209.39;1823347;78;20928;-73
2021/04/21 01:34:57;;;;;;;23.83;19.30;;;;;;;9.58;77.90;100218.93;1823132;78;21361;-71
2021/04/21 01:37:35;;;;;;;22.90;19.17;;;;;;;9.50;77.93;100214.19;1823411;78;21417;-73
2021/04/21 01:40:10;;;;;;;21.20;17.60;;;;;;;9.46;77.92;100225.78;1823435;78;21447;-72
2021/04/21 01:42:42;;;;;;;25.37;16.20;;;;;;;9.41;77.83;100233.08;1823383;78;21506;-73
2021/04/21 01:45:17;;;;;;;18.55;15.95;;;;;;;9.36;77.82;100235.98;1823315;78;21334;-73
2021/04/21 01:47:45;;;;;;;22.87;17.25;;;;;;;9.31;77.90;100240.63;1823241;78;21382;-73
2021/04/21 01:50:15;;;;;;;19.15;16.27;;;;;;;9.25;78.03;100243.61;1791995;78;21481;-72
2021/04/21 01:53:29;;;;;;;21.75;16.85;;;;;;;9.19;78.10;100250.07;1792010;78;21050;-71
2021/04/21 01:56:11;;;;;;;25.55;17.77;;;;;;;9.15;78.06;100249.05;1823018;78;20935;-74
2021/04/21 01:58:57;;;;;;;20.88;16.45;;;;;;;9.07;78.05;100260.81;1823253;78;21477;-72
2021/04/21 02:01:38;;;;;;;20.62;15.35;;;;;;;9.02;78.04;100260.70;1822780;78;21825;-71
2021/04/21 02:04:24;;;;;;;17.90;14.30;;;;;;;8.94;78.10;100262.47;1823087;78;20948;-72
2021/04/21 02:07:00;;;;;;;20.85;15.60;;;;;;;8.89;78.12;100267.11;1823130;78;21019;-75
2021/04/21 02:09:39;;;;;;;22.20;15.88;;;;;;;8.83;78.27;100274.86;1819948;78;20944;-73
2021/04/21 02:12:21;;;;;;;22.45;17.45;;;;;;;8.78;78.28;100277.36;1821923;78;20964;-73
2021/04/21 02:15:12;;;;;;;25.95;18.23;;;;;;;8.74;78.19;100281.94;1825043;78;21440;-73
2021/04/21 02:18:24;;;;;;;22.40;16.77;;;;;;;8.71;78.18;100279.05;1845900;76;22610;-74
2021/04/21 02:21:24;;;;;;;17.60;14.60;;;;;;;8.62;78.15;100286.08;1818143;77;21424;-75
2021/04/21 02:23:57;;;;;;;25.97;18.92;;;;;;;8.54;78.19;100288.75;1818043;79;21192;-74
2021/04/21 02:26:55;;;;;;;17.25;13.30;;;;;;;8.46;78.27;100293.12;1818000;78;20938;-74
2021/04/21 02:29:38;;;;;;;20.25;14.00;;;;;;;8.42;78.36;100296.83;1818005;79;20989;-74
2021/04/21 02:32:50;;;;;;;17.55;14.98;;;;;;;8.34;78.45;100301.59;1793546;79;26997;-74
2021/04/21 02:35:48;;;;;;;19.48;15.78;;;;;;;8.32;78.42;100306.09;1846037;76;22635;-74
2021/04/21 02:38:58;;;;;;;18.75;14.85;;;;;;;8.22;78.35;100317.03;1818130;79;20919;-74
2021/04/21 02:41:57;;;;;;;18.37;14.68;;;;;;;8.17;78.26;100320.83;1818051;77;22570;-74
2021/04/21 02:44:40;;;;;;;17.55;13.48;;;;;;;8.10;78.33;100329.00;1818060;79;20946;-73
2021/04/21 02:47:35;;;;;;;17.48;12.45;;;;;;;8.05;78.47;100331.03;1818217;79;21413;-73
2021/04/21 02:50:41;;;;;;;16.00;12.50;;;;;;;8.02;78.51;100335.09;1818075;79;20998;-73
2021/04/21 02:53:38;;;;;;;20.30;12.73;;;;;;;7.99;78.55;100347.48;1818165;78;21358;-72
2021/04/21 02:56:32;;;;;;;16.85;12.93;;;;;;;7.97;78.52;100350.17;1818056;79;21361;-72
2021/04/21 02:59:18;;;;;;;13.90;11.60;;;;;;;7.98;78.41;100354.92;1818027;79;20975;-73
2021/04/21 03:01:57;;;;;;;15.35;12.45;;;;;;;7.97;78.36;100354.56;1807930;79;20903;-71
2021/04/21 03:05:03;;;;;;;17.80;13.70;;;;;;;7.97;78.38;100363.23;1818102;79;20879;-73
2021/04/21 03:07:55;;;;;;;15.60;12.80;;;;;;;7.96;78.48;100361.99;1818006;79;20935;-72
2021/04/21 03:10:30;;;;;;;19.70;13.32;;;;;;;7.99;78.47;100377.05;1818021;79;21570;-72
2021/04/21 03:13:15;;;;;;;20.85;14.05;;;;;;;8.00;78.28;100380.02;1817880;78;21417;-75
2021/04/21 03:15:50;;;;;;;18.15;14.25;;;;;;;7.96;78.17;100382.87;1809371;79;20986;-74
2021/04/21 03:18:20;;;;;;;15.40;13.25;;;;;;;7.93;78.05;100389.11;1786987;79;21021;-72
2021/04/21 03:20:59;;;;;;;18.23;12.82;;;;;;;7.88;78.01;100389.36;1818164;78;21341;-73
2021/04/21 03:23:29;;;;;;;18.62;14.20;;;;;;;7.85;78.03;100391.30;1815949;79;21376;-74
2021/04/21 03:25:59;;;;;;;19.27;14.75;;;;;;;7.82;78.14;100392.75;1787061;79;21018;-74
2021/04/21 03:28:28;;;;;;;18.95;15.40;;;;;;;7.80;78.16;100401.12;1818039;79;20930;-72
2021/04/21 03:31:00;;;;;;;22.10;16.30;;;;;;;7.80;78.23;100401.98;1817918;78;20923;-74
2021/04/21 03:33:32;;;;;;;21.87;16.30;;;;;;;7.82;78.16;100405.80;1818172;78;20982;-74
2021/04/21 03:36:01;;;;;;;23.50;16.37;;;;;;;7.84;78.02;100413.09;1833211;78;22328;-74
2021/04/21 03:38:29;;;;;;;22.07;15.93;;;;;;;7.85;77.99;100411.72;1833095;78;21547;-75
2021/04/21 03:40:57;;;;;;;21.17;15.63;;;;;;;7.87;78.01;100420.32;1805671;78;20899;-74
2021/04/21 03:43:26;;;;;;;23.42;14.80;;;;;;;7.92;77.93;100421.38;1833068;78;21462;-75
2021/04/21 03:45:54;;;;;;;17.75;14.43;;;;;;;7.95;77.84;100426.44;1833022;77;21328;-73
2021/04/21 03:48:22;;;;;;;19.60;15.40;;;;;;;8.04;77.74;100422.50;1832533;78;21769;-74
2021/04/21 03:50:52;;;;;;;17.70;14.03;;;;;;;8.14;77.53;100429.38;1832497;78;20996;-73
2021/04/21 03:53:22;;;;;;;18.35;13.98;;;;;;;8.23;77.08;100431.52;1832413;78;21034;-73
2021/04/21 03:55:51;;;;;;;17.40;13.08;;;;;;;8.29;76.69;100441.19;1832449;78;20969;-73
2021/04/21 03:58:19;;;;;;;20.23;13.68;;;;;;;8.38;76.47;100438.55;1779222;78;20958;-73
2021/04/21 04:00:51;;;;;;;26.27;16.50;;;;;;;8.44;76.29;100446.06;1779436;78;21316;-72
2021/04/21 04:03:22;;;;;;;20.97;16.25;;;;;;;8.50;76.09;100444.43;1831904;77;21475;-73
2021/04/21 04:06:15;;;;;;;20.65;16.05;;;;;;;8.62;75.90;100453.37;1805609;78;21392;-73
2021/04/21 04:09:01;;;;;;;20.10;17.48;;;;;;;8.73;75.36;100455.40;1805736;78;20918;-72
2021/04/21 04:11:46;;;;;;;19.45;15.85;;;;;;;8.84;74.99;100462.66;1832450;78;20990;-72
2021/04/21 04:14:34;;;;;;;21.62;14.98;;;;;;;8.98;74.69;100469.29;1832519;78;22249;-72
2021/04/21 04:17:04;;;;;;;17.30;14.05;;;;;;;9.15;74.28;100470.10;1832301;78;21012;-74
2021/04/21 04:19:36;;;;;;;18.87;13.80;;;;;;;9.30;73.85;100479.70;1832346;77;20986;-72
2021/04/21 04:22:09;;;;;;;17.70;14.33;;;;;;;9.45;73.52;100486.68;1831791;78;21032;-70
2021/04/21 04:24:49;;;;;;;15.48;13.88;;;;;;;9.63;72.88;100491.31;1832565;77;20887;-73
2021/04/21 04:27:20;;;;;;;22.77;15.20;;;;;;;9.86;72.24;100494.36;1832396;78;21807;-71
2021/04/21 04:29:49;;;;;;;18.23;14.00;;;;;;;10.10;71.71;100502.54;1832390;78;21610;-70
2021/04/21 04:32:20;;;;;;;20.02;13.95;;;;;;;10.32;70.89;100505.58;1832454;77;20956;-72
2021/04/21 04:34:51;;;;;;;18.00;14.73;;;;;;;10.50;70.52;100507.55;1832246;77;21355;-73
2021/04/21 04:37:20;;;;;;;19.52;14.25;;;;;;;10.73;70.02;100511.34;1832374;78;21041;-71
2021/04/21 04:39:49;;;;;;;19.07;15.75;;;;;;;10.96;69.01;100515.17;1832383;77;21394;-71
2021/04/21 04:42:17;;;;;;;19.23;16.12;;;;;;;11.25;68.09;100515.54;1832382;78;20899;-77
2021/04/21 04:44:50;;;;;;;18.62;15.72;;;;;;;11.60;67.40;100525.93;1833228;77;21356;-76
2021/04/21 04:47:51;;;;;;;19.62;15.43;;;;;;;11.98;66.07;100525.64;1832473;78;21025;-74
2021/04/21 04:50:30;;;;;;;18.20;15.35;;;;;;;12.31;64.78;100526.45;1831764;77;21403;-75
2021/04/21 04:52:59;;;;;;;17.52;15.65;;;;;;;12.71;63.52;100523.67;1799319;78;21375;-78
2021/04/21 04:55:28;;;;;;;20.57;15.90;;;;;;;13.06;62.34;100525.59;1799308;79;20985;-77
2021/04/21 04:57:57;;;;;;;16.95;15.08;;;;;;;13.32;61.60;100526.38;1799427;79;20958;-80
2021/04/21 05:00:28;;;;;;;23.07;17.00;;;;;;;13.62;60.56;100522.42;1799418;79;21482;-78
2021/04/21 05:03:14;;;;;;;29.98;23.35;;;;;;;13.81;60.02;100524.05;1799497;78;20981;-77
2021/04/21 05:05:45;;;;;;;30.37;24.87;;;;;;;14.00;59.16;100530.08;1799536;79;21431;-79
2021/04/21 05:08:20;;;;;;;36.93;25.15;;;;;;;14.25;58.31;100534.80;1799218;79;20962;-80
2021/04/21 05:11:01;;;;;;;28.95;24.27;;;;;;;14.47;57.58;100529.57;1799470;79;21499;-79
2021/04/21 05:13:40;;;;;;;29.55;24.98;;;;;;;14.76;56.85;100534.86;1799211;79;21037;-80
2021/04/21 05:16:26;;;;;;;31.35;26.10;;;;;;;15.04;56.03;100534.34;1799295;79;21076;-81
2021/04/21 05:19:18;;;;;;;27.10;23.70;;;;;;;15.42;55.85;100534.84;1832671;78;21354;-81
2021/04/21 05:22:28;;;;;;;23.75;21.23;;;;;;;15.75;54.60;100532.58;1832393;78;20938;-78
2021/04/21 05:25:45;;;;;;;25.77;22.27;;;;;;;16.04;53.75;100539.88;1832343;78;20907;-75
2021/04/21 05:28:24;;;;;;;23.87;20.85;;;;;;;16.29;52.85;100544.76;1832341;78;21348;-75
2021/04/21 05:31:45;;;;;;;24.07;20.35;;;;;;;16.54;51.66;100550.59;1832436;78;20922;-75
2021/04/21 05:35:13;;;;;;;24.07;20.32;;;;;;;16.74;51.16;100553.70;1832003;77;21190;-76
2021/04/21 05:38:17;;;;;;;21.90;19.65;;;;;;;16.99;50.23;100552.41;1829655;78;20938;-76
2021/04/21 05:41:02;;;;;;;21.70;19.40;;;;;;;17.27;49.64;100557.89;1813509;78;21407;-78
2021/04/21 05:44:06;;;;;;;22.32;20.02;;;;;;;17.50;49.14;100557.67;1829720;78;21371;-76
2021/04/21 05:47:01;;;;;;;20.90;18.70;;;;;;;17.79;48.93;100564.30;1826433;77;20962;-76
2021/04/21 05:52:49;;;;;;;17.45;15.85;;;;;;;18.64;46.74;100566.10;1846183;77;23062;-76
2021/04/21 05:55:49;;;;;;;16.60;13.75;;;;;;;18.79;46.21;100570.48;1824144;78;21086;-75
2021/04/21 05:58:54;;;;;;;14.33;12.90;;;;;;;19.02;46.00;100572.25;1824168;78;21821;-75
2021/04/21 06:01:32;;;;;;;13.35;12.10;;;;;;;19.24;44.76;100576.33;1823888;78;21007;-76
2021/04/21 06:04:01;;;;;;;14.53;13.22;;;;;;;19.43;44.35;100582.49;1823836;78;21045;-80
2021/04/21 06:06:29;;;;;;;13.22;12.03;;;;;;;19.68;44.16;100582.27;1823718;78;21023;-81
2021/04/21 06:08:59;;;;;;;12.23;11.05;;;;;;;20.02;43.72;100582.91;1823853;78;20889;-79
2021/04/21 06:11:30;;;;;;;12.98;11.80;;;;;;;20.36;42.67;100578.15;1770385;78;21207;-78
2021/04/21 06:14:00;;;;;;;13.48;12.18;;;;;;;20.58;42.04;100587.47;1823731;78;21109;-79
2021/04/21 06:16:29;;;;;;;13.18;11.88;;;;;;;20.79;41.57;100591.09;1823898;78;21026;-78
2021/04/21 06:19:00;;;;;;;11.45;10.40;;;;;;;20.93;41.06;100585.66;1823696;78;21016;-78
2021/04/21 06:21:32;;;;;;;11.80;10.72;;;;;;;21.09;40.74;100591.04;1823797;78;21038;-78
2021/04/21 06:24:00;;;;;;;11.97;10.98;;;;;;;21.32;39.91;100584.59;1824009;78;22287;-77
2021/04/21 06:26:31;;;;;;;11.83;10.80;;;;;;;21.49;39.59;100590.84;1823946;78;21027;-78
2021/04/21 06:29:08;;;;;;;11.10;10.00;;;;;;;21.53;39.59;100584.19;1824039;78;20944;-78
2021/04/21 06:31:50;;;;;;;11.20;10.20;;;;;;;21.57;39.29;100589.53;1823916;78;20928;-78
2021/04/21 06:34:19;;;;;;;11.85;9.60;;;;;;;21.59;37.89;100590.21;1826465;76;20909;-77
2021/04/21 06:36:50;;;;;;;9.70;8.90;;;;;;;21.33;37.98;100598.29;1827256;78;21360;-77
2021/04/21 06:39:22;;;;;;;10.63;9.83;;;;;;;20.98;38.08;100600.16;1826331;78;21094;-76
2021/04/21 06:41:56;;;;;;;10.68;9.73;;;;;;;20.80;38.69;100605.58;1826256;78;21058;-78
2021/04/21 06:44:47;;;;;;;11.45;9.40;;;;;;;20.81;39.62;100606.41;1824201;78;20935;-77
2021/04/21 06:47:23;;;;;;;10.10;9.23;;;;;;;21.11;39.67;100605.05;1824161;78;20924;-78
2021/04/21 06:50:07;;;;;;;9.23;8.33;;;;;;;21.40;39.33;100613.14;1824033;78;21355;-80
2021/04/21 06:52:41;;;;;;;10.20;9.18;;;;;;;21.64;38.27;100606.55;1816038;78;21383;-79
2021/04/21 06:55:12;;;;;;;8.30;7.53;;;;;;;21.98;37.32;100610.09;1815675;79;20973;-79
2021/04/21 06:57:40;;;;;;;9.55;8.30;;;;;;;22.32;38.04;100612.11;1815640;78;20909;-79
2021/04/21 07:00:19;;;;;;;8.83;8.05;;;;;;;22.40;36.67;100621.11;1815852;79;21031;-78
2021/04/21 07:02:51;;;;;;;8.43;7.72;;;;;;;22.55;36.35;100626.11;1815440;79;21486;-80
2021/04/21 07:05:31;;;;;;;7.72;7.12;;;;;;;22.69;35.42;100622.72;1815234;78;21004;-79
2021/04/21 07:08:13;;;;;;;7.50;6.90;;;;;;;22.89;36.14;100621.82;1815091;79;20980;-82
2021/04/21 07:10:54;;;;;;;7.83;7.22;;;;;;;22.88;34.63;100627.36;1815319;78;21008;-82
2021/04/21 07:13:44;;;;;;;8.83;7.97;;;;;;;22.87;35.81;100622.49;1815472;79;21027;-82
2021/04/21 07:16:24;;;;;;;8.08;7.30;;;;;;;23.09;35.40;100629.48;1815478;78;21357;-79
2021/04/21 07:19:03;;;;;;;7.72;7.08;;;;;;;22.93;35.43;100622.32;1815202;79;20909;-79
2021/04/21 07:21:32;;;;;;;8.75;8.05;;;;;;;22.94;34.47;100636.02;1815330;79;20988;-84
2021/04/21 07:24:03;;;;;;;7.45;6.62;;;;;;;22.76;33.96;100630.37;1759107;79;20941;-80
2021/04/21 07:26:35;;;;;;;8.05;7.35;;;;;;;22.63;34.52;100635.93;1815985;79;21012;-81
2021/04/21 07:29:05;;;;;;;8.35;7.55;;;;;;;22.51;34.48;100634.95;1816109;79;21362;-78
2021/04/21 07:31:38;;;;;;;8.98;8.18;;;;;;;22.20;34.71;100633.96;1786574;79;20964;-77
2021/04/21 07:34:14;;;;;;;7.85;7.15;;;;;;;22.12;34.83;100634.78;1814669;78;20901;-78
2021/04/21 07:36:48;;;;;;;8.75;8.05;;;;;;;22.09;35.73;100637.28;1815489;79;20932;-80
2021/04/21 07:39:16;;;;;;;7.67;7.17;;;;;;;21.81;36.05;100637.27;1815734;78;20992;-82
2021/04/21 07:41:47;;;;;;;8.35;7.65;;;;;;;21.75;36.12;100637.44;1815976;78;21202;-80
2021/04/21 07:44:36;;;;;;;8.28;7.58;;;;;;;21.43;36.60;100643.52;1815535;79;21010;-77
2021/04/21 07:47:11;;;;;;;9.03;8.13;;;;;;;21.14;36.63;100639.39;1815287;79;20940;-77
2021/04/21 07:49:48;;;;;;;8.40;7.65;;;;;;;20.70;37.18;100639.52;1814850;79;21016;-79
2021/04/21 07:52:30;;;;;;;7.72;6.92;;;;;;;20.34;37.92;100640.06;1799373;78;20925;-77
2021/04/21 07:55:18;;;;;;;8.43;7.60;;;;;;;19.96;38.56;100640.75;1791091;80;21364;-78
2021/04/21 07:58:00;;;;;;;7.33;6.60;;;;;;;19.58;39.29;100642.67;1791052;78;20918;-77
2021/04/21 08:00:32;;;;;;;8.50;7.65;;;;;;;19.24;39.40;100643.30;1791196;79;21024;-78
2021/04/21 08:03:00;;;;;;;7.45;6.83;;;;;;;18.97;40.40;100650.27;1791208;79;21024;-78
2021/04/21 08:05:28;;;;;;;7.50;6.67;;;;;;;18.77;41.38;100649.97;1791158;78;21046;-76
2021/04/21 08:08:00;;;;;;;8.38;7.55;;;;;;;18.58;41.14;100652.16;1791123;78;21334;-76
2021/04/21 08:10:39;;;;;;;8.43;7.62;;;;;;;18.30;40.79;100648.59;1791022;78;20977;-76
2021/04/21 08:13:03;;;;;;;7.45;6.55;;;;;;;17.97;41.89;100661.31;1790276;78;20937;-77
2021/04/21 08:15:38;;;;;;;7.75;6.95;;;;;;;17.65;42.81;100661.51;1791057;78;20997;-78
2021/04/21 08:18:13;;;;;;;7.62;6.92;;;;;;;17.51;43.47;100664.06;1791054;79;21395;-75
2021/04/21 08:20:55;;;;;;;8.28;7.20;;;;;;;17.33;43.08;100667.86;1790983;78;21360;-77
2021/04/21 08:23:20;;;;;;;8.80;7.92;;;;;;;17.14;43.29;100665.95;1790517;78;20961;-77
2021/04/21 08:25:49;;;;;;;7.97;7.28;;;;;;;16.91;43.18;100667.96;1790988;79;21028;-76
2021/04/21 08:28:20;;;;;;;9.00;8.03;;;;;;;16.67;43.08;100669.53;1790958;78;21375;-76
2021/04/21 08:30:59;;;;;;;9.23;8.43;;;;;;;16.43;44.51;100670.66;1762979;80;20949;-78
2021/04/21 08:33:29;;;;;;;11.97;8.73;;;;;;;16.43;44.51;100670.66;1791181;78;21321;-77
2021/04/21 08:35:57;;;;;;;11.40;8.65;;;;;;;16.44;45.68;100663.05;1791370;79;20969;-76
2021/04/21 08:38:25;;;;;;;10.28;8.85;;;;;;;16.44;45.61;100663.55;1791246;79;20926;-76
2021/04/21 08:40:53;;;;;;;9.20;8.30;;;;;;;16.47;45.56;100665.43;1791555;78;20934;-77
2021/04/21 08:43:22;;;;;;;12.35;11.12;;;;;;;16.67;45.38;100666.89;1792613;79;21017;-77
2021/04/21 08:45:52;;;;;;;8.98;8.18;;;;;;;17.00;44.55;100665.84;1791722;79;21025;-73
2021/04/21 08:48:21;;;;;;;10.50;9.05;;;;;;;17.24;44.15;100666.84;1791885;78;21012;-74
2021/04/21 08:50:49;;;;;;;8.30;7.47;;;;;;;17.72;44.53;100674.10;1790797;79;21013;-75
2021/04/21 08:53:17;;;;;;;8.83;7.78;;;;;;;18.02;43.59;100670.52;1812691;79;20937;-75
2021/04/21 08:55:45;;;;;;;8.00;7.28;;;;;;;18.10;42.44;100665.86;1783142;79;20944;-75
2021/04/21 08:58:33;;;;;;;9.18;7.95;;;;;;;18.07;41.32;100659.98;1845931;76;22712;-75
2021/04/21 09:01:02;;;;;;;9.93;8.95;;;;;;;17.91;41.69;100667.17;1818047;77;20935;-75
2021/04/21 09:03:35;;;;;;;9.10;8.30;;;;;;;17.79;42.51;100665.94;1818047;78;21354;-76
2021/04/21 09:06:01;;;;;;;8.45;7.65;;;;;;;17.68;42.61;100668.72;1817807;78;21026;-75
2021/04/21 09:08:30;;;;;;;9.20;8.25;;;;;;;17.67;42.82;100671.00;1817988;78;21002;-77
2021/04/21 09:10:58;;;;;;;9.08;8.28;;;;;;;17.93;42.95;100668.70;1817933;79;20996;-76
2021/04/21 09:13:32;;;;;;;8.68;7.92;;;;;;;18.01;42.18;100673.33;1818174;77;20922;-76
2021/04/21 09:16:01;;;;;;;8.98;8.05;;;;;;;18.12;41.71;100667.88;1818273;78;21363;-75
2021/04/21 09:18:34;;;;;;;10.45;8.28;;;;;;;18.25;41.68;100667.58;1818243;77;20985;-78
2021/04/21 09:21:06;;;;;;;8.23;7.47;;;;;;;18.41;41.74;100663.05;1818173;78;20931;-78
2021/04/21 09:23:41;;;;;;;9.20;8.28;;;;;;;18.52;42.17;100669.53;1818101;77;21301;-78
2021/04/21 09:26:21;;;;;;;9.80;8.90;;;;;;;18.52;42.07;100666.88;1817974;78;21542;-78
2021/04/21 09:28:53;;;;;;;9.70;8.20;;;;;;;18.47;41.41;100668.27;1818059;78;22114;-78
2021/04/21 09:31:29;;;;;;;11.50;8.70;;;;;;;18.28;41.58;100659.84;1817916;77;21357;-77
2021/04/21 09:34:13;;;;;;;9.60;8.70;;;;;;;18.10;41.98;100674.31;1818165;79;20943;-77
2021/04/21 09:36:45;;;;;;;10.25;9.18;;;;;;;17.96;42.42;100675.54;1817858;77;20906;-77
2021/04/21 09:39:23;;;;;;;10.95;9.73;;;;;;;17.75;43.14;100675.64;1817961;79;20911;-77
2021/04/21 09:42:03;;;;;;;10.03;9.03;;;;;;;17.63;43.99;100673.60;1817952;77;21353;-78
2021/04/21 09:44:31;;;;;;;11.25;8.78;;;;;;;17.58;43.80;100680.61;1817906;79;20931;-79
2021/04/21 09:47:05;;;;;;;8.63;7.83;;;;;;;17.58;44.07;100675.30;1817972;79;20922;-76
2021/04/21 09:49:38;;;;;;;8.08;7.37;;;;;;;17.55;43.73;100674.27;1817735;77;20930;-77
2021/04/21 09:52:21;;;;;;;8.55;7.78;;;;;;;17.58;44.02;100677.13;1818008;79;21006;-76
2021/04/21 09:54:51;;;;;;;7.00;6.30;;;;;;;17.71;43.82;100676.39;1817932;79;21352;-77
2021/04/21 09:57:25;;;;;;;7.05;6.03;;;;;;;17.89;41.70;100669.95;1817887;78;21029;-79
2021/04/21 10:00:07;;;;;;;7.05;6.42;;;;;;;18.23;40.78;100668.23;1817946;79;20923;-80
2021/04/21 10:02:38;;;;;;;6.17;5.67;;;;;;;18.62;40.24;100666.34;1817994;77;20891;-80
2021/04/21 10:05:33;;;;;;;5.80;5.03;;;;;;;18.82;40.26;100671.15;1818030;77;20966;-79
2021/04/21 10:08:18;;;;;;;6.47;5.87;;;;;;;18.88;40.41;100675.06;1817898;78;21169;-80
2021/04/21 10:11:01;;;;;;;6.25;5.65;;;;;;;18.86;40.13;100680.18;1817286;78;21061;-78
2021/04/21 10:13:51;;;;;;;5.97;5.47;;;;;;;18.72;40.44;100679.62;1817410;77;21000;-78
2021/04/21 10:16:21;;;;;;;6.08;5.53;;;;;;;18.56;39.97;100680.19;1817179;78;21356;-79
2021/04/21 10:18:49;;;;;;;6.85;5.53;;;;;;;18.33;40.35;100682.32;1817441;79;20938;-83
2021/04/21 10:21:20;;;;;;;6.97;6.17;;;;;;;18.39;40.79;100679.61;1817332;79;22066;-78
2021/04/21 10:23:49;;;;;;;5.55;5.05;;;;;;;18.66;40.91;100672.72;1817355;78;20993;-80
2021/04/21 10:26:18;;;;;;;9.53;5.70;;;;;;;18.97;40.13;100660.90;1817376;79;20990;-78
2021/04/21 10:28:48;;;;;;;6.50;5.90;;;;;;;19.19;39.80;100669.00;1817291;79;21096;-79
2021/04/21 10:31:17;;;;;;;6.08;5.35;;;;;;;19.43;38.89;100663.61;1817422;78;21452;-79
2021/04/21 10:33:48;;;;;;;7.70;4.95;;;;;;;19.41;38.22;100674.92;1817356;79;21070;-77
2021/04/21 10:36:18;;;;;;;5.83;5.22;;;;;;;19.33;38.16;100671.66;1817219;79;20970;-77
2021/04/21 10:38:50;;;;;;;6.40;5.83;;;;;;;19.28;37.77;100668.61;1817367;79;21037;-77
2021/04/21 10:41:35;;;;;;;7.17;6.37;;;;;;;19.15;38.28;100676.91;1817399;79;20975;-76
2021/04/21 10:44:18;;;;;;;7.90;6.60;;;;;;;18.91;37.64;100676.09;1817411;77;20935;-78
2021/04/21 10:47:04;;;;;;;8.20;7.40;;;;;;;18.54;38.62;100674.21;1817364;79;21343;-79
2021/04/21 10:49:57;;;;;;;6.78;6.08;;;;;;;18.21;39.07;100680.80;1817235;79;20895;-77
2021/04/21 10:52:33;;;;;;;8.85;6.85;;;;;;;17.90;39.68;100697.34;1817314;79;20969;-77
2021/04/21 10:55:13;;;;;;;8.53;7.22;;;;;;;17.64;41.33;100687.20;1817577;77;20995;-82
2021/04/21 10:58:08;;;;;;;9.58;7.20;;;;;;;17.46;42.91;100689.66;1817393;77;21477;-81
2021/04/21 11:00:38;;;;;;;8.75;7.67;;;;;;;17.37;43.05;100686.50;1817146;78;21195;-82
2021/04/21 11:03:19;;;;;;;7.87;6.17;;;;;;;17.28;43.30;100684.16;1817317;77;20986;-80
2021/04/21 11:05:59;;;;;;;6.17;5.53;;;;;;;17.32;42.26;100678.09;1817369;78;20994;-78
2021/04/21 11:08:30;;;;;;;6.03;4.90;;;;;;;17.25;41.66;100681.77;1817424;79;21030;-82
2021/04/21 11:11:02;;;;;;;6.92;4.33;;;;;;;17.14;41.06;100685.83;1813648;77;21093;-83
2021/04/21 11:13:40;;;;;;;6.85;6.10;;;;;;;17.11;40.37;100688.77;1817545;79;21354;-85
2021/04/21 11:16:26;;;;;;;5.72;5.15;;;;;;;17.22;42.31;100683.86;1817349;79;21578;-82
2021/04/21 11:18:55;;;;;;;9.23;5.97;;;;;;;17.29;42.40;100684.50;1817705;77;21342;-83
2021/04/21 11:21:23;;;;;;;7.05;5.65;;;;;;;17.35;42.91;100682.65;1786571;77;20875;-82
2021/04/21 11:24:02;;;;;;;5.17;4.12;;;;;;;17.38;44.24;100693.47;1732818;79;20919;-79
2021/04/21 11:26:31;;;;;;;6.50;4.62;;;;;;;17.35;43.27;100698.55;1815815;79;21374;-81
2021/04/21 11:29:21;;;;;;;4.37;3.98;;;;;;;17.33;43.76;100706.30;1817598;77;21093;-80
2021/04/21 11:31:56;;;;;;;3.67;3.30;;;;;;;17.38;42.95;100699.60;1817767;79;20978;-77
2021/04/21 11:34:34;;;;;;;3.25;2.92;;;;;;;17.60;42.03;100699.88;1818304;79;20931;-83
2021/04/21 11:37:16;;;;;;;3.02;2.72;;;;;;;17.81;41.87;100689.22;1818497;79;20933;-84
2021/04/21 11:40:00;;;;;;;4.00;3.10;;;;;;;17.93;41.52;100689.09;1818392;79;21355;-80
2021/04/21 11:42:40;;;;;;;4.37;3.33;;;;;;;17.93;41.28;100689.92;1819442;79;20951;-81
2021/04/21 11:45:25;;;;;;;4.00;3.35;;;;;;;17.83;41.16;100697.52;1819047;78;21085;-82
2021/04/21 11:48:09;;;;;;;4.55;3.90;;;;;;;17.65;41.64;100703.94;1818553;77;20922;-79
2021/04/21 11:50:39;;;;;;;3.95;3.65;;;;;;;17.44;42.43;100709.34;1817063;79;21360;-82
2021/04/21 11:53:15;;;;;;;4.87;4.30;;;;;;;17.20;44.17;100718.44;1818427;79;21425;-80
2021/04/21 11:55:55;;;;;;;5.55;4.37;;;;;;;16.94;46.67;100736.10;1818456;77;20927;-85
2021/04/21 11:58:41;;;;;;;5.05;4.03;;;;;;;16.65;48.77;100727.08;1826620;78;21357;-79
2021/04/21 12:01:13;;;;;;;5.50;4.50;;;;;;;16.40;50.02;100714.56;1832945;78;21403;-78
2021/04/21 12:03:48;;;;;;;6.00;4.40;;;;;;;16.26;51.20;100709.09;1812704;79;20981;-78
2021/04/21 12:06:17;;;;;;;7.42;4.60;;;;;;;16.25;53.16;100711.41;1812966;79;21254;-79
2021/04/21 12:08:48;;;;;;;4.08;3.70;;;;;;;16.32;51.90;100697.19;1813041;79;21034;-79
2021/04/21 12:11:36;;;;;;;3.98;3.67;;;;;;;16.48;50.85;100691.45;1813360;78;21022;-78